Terminal Aerodrome Forecast
Issued by NWS

Home | Current Version | Previous Version | Graphics & Text | Print | Product List | Glossary On
Versions: 1 2 3 4 5 6 7 8 9 10 11 12 13 14 15 16 17 18
000
FTUS42 KMHX 012122 AAB
TAFPGV
TAF AMD
KPGV 012122Z 0121/0218 04005KT 3SM -RA OVC006
     FM020000 VRB05KT 4SM -RA OVC015
     FM020700 24005KT P6SM OVC030
     FM021500 30005KT P6SM OVC050
      AMD LTD TO CLD VIS AND WIND=

USA.gov is the U.S. government's official web portal to all federal, state and local government web resources and services.